sensor_id;sensor_type;location;lat;lon;timestamp;P1;durP1;ratioP1;P2;durP2;ratioP2
58240;SDS011;45058;55.772;38.224;2023-07-16T00:00:09;32.25;;;17.35;;
58240;SDS011;45058;55.772;38.224;2023-07-16T00:02:36;30.30;;;18.58;;
58240;SDS011;45058;55.772;38.224;2023-07-16T00:05:02;25.13;;;19.40;;
58240;SDS011;45058;55.772;38.224;2023-07-16T00:07:30;32.15;;;18.35;;
58240;SDS011;45058;55.772;38.224;2023-07-16T00:09:56;24.13;;;17.20;;
58240;SDS011;45058;55.772;38.224;2023-07-16T00:12:22;28.23;;;20.80;;
58240;SDS011;45058;55.772;38.224;2023-07-16T00:14:48;27.35;;;19.50;;
58240;SDS011;45058;55.772;38.224;2023-07-16T00:17:14;23.35;;;18.20;;
58240;SDS011;45058;55.772;38.224;2023-07-16T00:19:40;27.17;;;19.30;;
58240;SDS011;45058;55.772;38.224;2023-07-16T00:22:06;29.77;;;19.42;;
58240;SDS011;45058;55.772;38.224;2023-07-16T00:24:32;28.27;;;21.02;;
58240;SDS011;45058;55.772;38.224;2023-07-16T00:26:58;32.50;;;23.17;;
58240;SDS011;45058;55.772;38.224;2023-07-16T00:29:25;23.40;;;19.40;;
58240;SDS011;45058;55.772;38.224;2023-07-16T00:31:51;27.88;;;19.08;;
58240;SDS011;45058;55.772;38.224;2023-07-16T00:34:17;24.73;;;15.00;;
58240;SDS011;45058;55.772;38.224;2023-07-16T00:36:44;26.50;;;17.83;;
58240;SDS011;45058;55.772;38.224;2023-07-16T00:39:10;24.77;;;17.35;;
58240;SDS011;45058;55.772;38.224;2023-07-16T00:41:36;27.08;;;17.92;;
58240;SDS011;45058;55.772;38.224;2023-07-16T00:44:02;27.63;;;18.17;;
58240;SDS011;45058;55.772;38.224;2023-07-16T00:46:28;24.75;;;14.68;;
58240;SDS011;45058;55.772;38.224;2023-07-16T00:48:54;22.58;;;15.15;;
58240;SDS011;45058;55.772;38.224;2023-07-16T00:51:22;19.25;;;15.93;;
58240;SDS011;45058;55.772;38.224;2023-07-16T00:53:50;18.08;;;15.73;;
58240;SDS011;45058;55.772;38.224;2023-07-16T00:56:16;20.20;;;14.55;;
58240;SDS011;45058;55.772;38.224;2023-07-16T00:58:45;19.88;;;15.10;;
58240;SDS011;45058;55.772;38.224;2023-07-16T01:01:12;17.02;;;14.43;;
58240;SDS011;45058;55.772;38.224;2023-07-16T01:03:39;20.85;;;13.55;;
58240;SDS011;45058;55.772;38.224;2023-07-16T01:06:15;15.10;;;12.93;;
58240;SDS011;45058;55.772;38.224;2023-07-16T01:08:49;18.35;;;12.68;;
58240;SDS011;45058;55.772;38.224;2023-07-16T01:11:24;16.92;;;13.02;;
58240;SDS011;45058;55.772;38.224;2023-07-16T01:13:50;19.13;;;12.70;;
58240;SDS011;45058;55.772;38.224;2023-07-16T01:16:18;15.43;;;12.55;;
58240;SDS011;45058;55.772;38.224;2023-07-16T01:18:45;15.85;;;12.60;;
58240;SDS011;45058;55.772;38.224;2023-07-16T01:21:11;13.45;;;11.30;;
58240;SDS011;45058;55.772;38.224;2023-07-16T01:31:48;15.00;;;11.75;;
58240;SDS011;45058;55.772;38.224;2023-07-16T01:34:14;20.73;;;11.57;;
58240;SDS011;45058;55.772;38.224;2023-07-16T01:36:40;15.57;;;11.30;;
58240;SDS011;45058;55.772;38.224;2023-07-16T01:39:07;17.88;;;11.02;;
58240;SDS011;45058;55.772;38.224;2023-07-16T01:41:33;13.65;;;10.98;;
58240;SDS011;45058;55.772;38.224;2023-07-16T01:43:58;13.65;;;10.00;;
58240;SDS011;45058;55.772;38.224;2023-07-16T01:46:25;22.13;;;11.07;;
58240;SDS011;45058;55.772;38.224;2023-07-16T01:48:50;15.18;;;10.90;;
58240;SDS011;45058;55.772;38.224;2023-07-16T01:51:17;14.95;;;10.77;;
58240;SDS011;45058;55.772;38.224;2023-07-16T01:53:43;15.07;;;11.20;;
58240;SDS011;45058;55.772;38.224;2023-07-16T01:56:09;16.45;;;10.77;;
58240;SDS011;45058;55.772;38.224;2023-07-16T01:58:35;13.52;;;11.45;;
58240;SDS011;45058;55.772;38.224;2023-07-16T02:01:01;17.02;;;10.30;;
58240;SDS011;45058;55.772;38.224;2023-07-16T02:03:27;13.27;;;11.07;;
58240;SDS011;45058;55.772;38.224;2023-07-16T02:05:53;16.88;;;11.18;;
58240;SDS011;45058;55.772;38.224;2023-07-16T02:08:19;12.52;;;10.30;;
58240;SDS011;45058;55.772;38.224;2023-07-16T02:10:46;13.05;;;10.20;;
58240;SDS011;45058;55.772;38.224;2023-07-16T02:13:13;13.88;;;10.25;;
58240;SDS011;45058;55.772;38.224;2023-07-16T02:15:39;18.05;;;10.95;;
58240;SDS011;45058;55.772;38.224;2023-07-16T02:18:06;11.73;;;10.13;;
58240;SDS011;45058;55.772;38.224;2023-07-16T02:20:54;11.52;;;9.63;;
58240;SDS011;45058;55.772;38.224;2023-07-16T02:23:20;14.60;;;10.07;;
58240;SDS011;45058;55.772;38.224;2023-07-16T02:25:46;12.23;;;9.75;;
58240;SDS011;45058;55.772;38.224;2023-07-16T02:28:15;14.98;;;11.35;;
58240;SDS011;45058;55.772;38.224;2023-07-16T02:30:41;20.60;;;11.40;;
58240;SDS011;45058;55.772;38.224;2023-07-16T02:33:10;15.43;;;10.35;;
58240;SDS011;45058;55.772;38.224;2023-07-16T02:35:36;22.88;;;9.93;;
58240;SDS011;45058;55.772;38.224;2023-07-16T02:38:02;18.48;;;9.57;;
58240;SDS011;45058;55.772;38.224;2023-07-16T02:40:28;15.20;;;9.52;;
58240;SDS011;45058;55.772;38.224;2023-07-16T02:42:54;13.98;;;9.40;;
58240;SDS011;45058;55.772;38.224;2023-07-16T02:45:20;12.88;;;9.60;;
58240;SDS011;45058;55.772;38.224;2023-07-16T02:47:46;12.05;;;8.95;;
58240;SDS011;45058;55.772;38.224;2023-07-16T02:50:15;13.35;;;9.50;;
58240;SDS011;45058;55.772;38.224;2023-07-16T02:52:41;15.80;;;10.18;;
58240;SDS011;45058;55.772;38.224;2023-07-16T02:55:08;16.20;;;9.27;;
58240;SDS011;45058;55.772;38.224;2023-07-16T02:57:34;15.40;;;10.00;;
58240;SDS011;45058;55.772;38.224;2023-07-16T03:00:00;13.20;;;9.73;;
58240;SDS011;45058;55.772;38.224;2023-07-16T03:02:26;13.00;;;9.40;;
58240;SDS011;45058;55.772;38.224;2023-07-16T03:04:52;11.90;;;9.60;;
58240;SDS011;45058;55.772;38.224;2023-07-16T03:07:19;16.70;;;9.02;;
58240;SDS011;45058;55.772;38.224;2023-07-16T03:09:45;12.95;;;9.13;;
58240;SDS011;45058;55.772;38.224;2023-07-16T03:12:11;13.90;;;9.05;;
58240;SDS011;45058;55.772;38.224;2023-07-16T03:14:37;14.02;;;9.70;;
58240;SDS011;45058;55.772;38.224;2023-07-16T03:17:03;11.35;;;9.20;;
58240;SDS011;45058;55.772;38.224;2023-07-16T03:19:33;13.52;;;8.57;;
58240;SDS011;45058;55.772;38.224;2023-07-16T03:21:59;10.38;;;8.57;;
58240;SDS011;45058;55.772;38.224;2023-07-16T03:24:25;14.55;;;9.15;;
58240;SDS011;45058;55.772;38.224;2023-07-16T03:26:51;12.35;;;8.13;;
58240;SDS011;45058;55.772;38.224;2023-07-16T03:29:17;13.82;;;8.38;;
58240;SDS011;45058;55.772;38.224;2023-07-16T03:31:43;9.43;;;6.97;;
58240;SDS011;45058;55.772;38.224;2023-07-16T03:34:11;11.60;;;8.10;;
58240;SDS011;45058;55.772;38.224;2023-07-16T03:36:37;12.65;;;7.97;;
58240;SDS011;45058;55.772;38.224;2023-07-16T03:39:03;10.50;;;7.43;;
58240;SDS011;45058;55.772;38.224;2023-07-16T03:41:29;9.60;;;7.60;;
58240;SDS011;45058;55.772;38.224;2023-07-16T03:43:56;12.63;;;7.85;;
58240;SDS011;45058;55.772;38.224;2023-07-16T03:46:22;9.82;;;7.38;;
58240;SDS011;45058;55.772;38.224;2023-07-16T03:48:48;10.35;;;7.88;;
58240;SDS011;45058;55.772;38.224;2023-07-16T03:51:14;10.13;;;7.60;;
58240;SDS011;45058;55.772;38.224;2023-07-16T03:53:40;15.35;;;7.38;;
58240;SDS011;45058;55.772;38.224;2023-07-16T03:56:06;10.38;;;7.05;;
58240;SDS011;45058;55.772;38.224;2023-07-16T03:58:34;11.27;;;6.97;;
58240;SDS011;45058;55.772;38.224;2023-07-16T04:01:03;8.32;;;7.53;;
58240;SDS011;45058;55.772;38.224;2023-07-16T04:03:30;10.45;;;7.15;;
58240;SDS011;45058;55.772;38.224;2023-07-16T04:06:02;12.77;;;7.78;;
58240;SDS011;45058;55.772;38.224;2023-07-16T04:08:29;11.75;;;7.55;;
58240;SDS011;45058;55.772;38.224;2023-07-16T04:10:55;9.60;;;6.93;;
58240;SDS011;45058;55.772;38.224;2023-07-16T04:13:21;11.32;;;7.03;;
58240;SDS011;45058;55.772;38.224;2023-07-16T04:15:47;9.20;;;6.78;;
58240;SDS011;45058;55.772;38.224;2023-07-16T04:18:13;11.93;;;7.28;;
58240;SDS011;45058;55.772;38.224;2023-07-16T04:20:39;16.40;;;8.20;;
58240;SDS011;45058;55.772;38.224;2023-07-16T04:23:05;12.55;;;7.75;;
58240;SDS011;45058;55.772;38.224;2023-07-16T04:25:31;13.00;;;9.07;;
58240;SDS011;45058;55.772;38.224;2023-07-16T04:27:57;14.80;;;8.63;;
58240;SDS011;45058;55.772;38.224;2023-07-16T04:30:23;13.60;;;7.72;;
58240;SDS011;45058;55.772;38.224;2023-07-16T04:32:49;12.52;;;8.25;;
58240;SDS011;45058;55.772;38.224;2023-07-16T04:35:15;11.18;;;7.63;;
58240;SDS011;45058;55.772;38.224;2023-07-16T04:37:41;14.63;;;8.77;;
58240;SDS011;45058;55.772;38.224;2023-07-16T04:40:07;13.35;;;8.70;;
58240;SDS011;45058;55.772;38.224;2023-07-16T04:42:34;12.70;;;8.88;;
58240;SDS011;45058;55.772;38.224;2023-07-16T04:45:00;15.32;;;8.80;;
58240;SDS011;45058;55.772;38.224;2023-07-16T04:47:26;11.02;;;8.85;;
58240;SDS011;45058;55.772;38.224;2023-07-16T04:49:52;15.98;;;8.93;;
58240;SDS011;45058;55.772;38.224;2023-07-16T04:52:18;11.30;;;8.45;;
58240;SDS011;45058;55.772;38.224;2023-07-16T04:54:44;9.73;;;7.95;;
58240;SDS011;45058;55.772;38.224;2023-07-16T04:57:10;10.18;;;7.95;;
58240;SDS011;45058;55.772;38.224;2023-07-16T04:59:36;13.93;;;8.38;;
58240;SDS011;45058;55.772;38.224;2023-07-16T05:02:04;10.30;;;8.18;;
58240;SDS011;45058;55.772;38.224;2023-07-16T05:04:31;10.55;;;8.60;;
58240;SDS011;45058;55.772;38.224;2023-07-16T05:06:57;8.98;;;7.68;;
58240;SDS011;45058;55.772;38.224;2023-07-16T05:09:23;8.88;;;7.63;;
58240;SDS011;45058;55.772;38.224;2023-07-16T05:11:49;8.82;;;7.55;;
58240;SDS011;45058;55.772;38.224;2023-07-16T05:14:15;10.00;;;6.57;;
58240;SDS011;45058;55.772;38.224;2023-07-16T05:16:41;11.45;;;7.68;;
58240;SDS011;45058;55.772;38.224;2023-07-16T05:19:07;12.23;;;6.55;;
58240;SDS011;45058;55.772;38.224;2023-07-16T05:21:33;9.38;;;6.63;;
58240;SDS011;45058;55.772;38.224;2023-07-16T05:23:59;10.93;;;6.40;;
58240;SDS011;45058;55.772;38.224;2023-07-16T05:26:25;9.40;;;7.30;;
58240;SDS011;45058;55.772;38.224;2023-07-16T05:28:51;9.80;;;6.65;;
58240;SDS011;45058;55.772;38.224;2023-07-16T05:31:17;10.10;;;6.03;;
58240;SDS011;45058;55.772;38.224;2023-07-16T05:33:43;10.10;;;6.68;;
58240;SDS011;45058;55.772;38.224;2023-07-16T05:36:09;9.05;;;6.30;;
58240;SDS011;45058;55.772;38.224;2023-07-16T05:38:35;8.98;;;5.97;;
58240;SDS011;45058;55.772;38.224;2023-07-16T05:41:01;10.95;;;5.82;;
58240;SDS011;45058;55.772;38.224;2023-07-16T05:43:28;10.30;;;6.15;;
58240;SDS011;45058;55.772;38.224;2023-07-16T05:45:55;14.07;;;6.90;;
58240;SDS011;45058;55.772;38.224;2023-07-16T05:48:21;13.63;;;6.38;;
58240;SDS011;45058;55.772;38.224;2023-07-16T05:50:47;8.30;;;5.05;;
58240;SDS011;45058;55.772;38.224;2023-07-16T05:53:13;7.07;;;5.60;;
58240;SDS011;45058;55.772;38.224;2023-07-16T05:55:39;7.00;;;5.20;;
58240;SDS011;45058;55.772;38.224;2023-07-16T05:58:05;9.27;;;5.45;;
58240;SDS011;45058;55.772;38.224;2023-07-16T06:00:31;8.48;;;4.75;;
58240;SDS011;45058;55.772;38.224;2023-07-16T06:02:57;7.20;;;5.75;;
58240;SDS011;45058;55.772;38.224;2023-07-16T06:05:24;8.18;;;5.03;;
58240;SDS011;45058;55.772;38.224;2023-07-16T06:07:51;11.35;;;5.57;;
58240;SDS011;45058;55.772;38.224;2023-07-16T06:10:18;10.63;;;5.70;;
58240;SDS011;45058;55.772;38.224;2023-07-16T06:12:45;6.75;;;5.55;;
58240;SDS011;45058;55.772;38.224;2023-07-16T06:19:39;7.43;;;5.20;;
58240;SDS011;45058;55.772;38.224;2023-07-16T06:22:47;6.63;;;5.47;;
58240;SDS011;45058;55.772;38.224;2023-07-16T06:25:16;7.05;;;5.45;;
58240;SDS011;45058;55.772;38.224;2023-07-16T06:27:51;6.25;;;5.10;;
58240;SDS011;45058;55.772;38.224;2023-07-16T06:30:17;8.55;;;5.28;;
58240;SDS011;45058;55.772;38.224;2023-07-16T06:32:43;11.50;;;5.82;;
58240;SDS011;45058;55.772;38.224;2023-07-16T06:35:09;8.80;;;5.40;;
58240;SDS011;45058;55.772;38.224;2023-07-16T06:37:36;7.93;;;5.78;;
58240;SDS011;45058;55.772;38.224;2023-07-16T06:40:02;7.45;;;4.65;;
58240;SDS011;45058;55.772;38.224;2023-07-16T06:42:30;12.93;;;6.10;;
58240;SDS011;45058;55.772;38.224;2023-07-16T06:44:56;9.15;;;5.45;;
58240;SDS011;45058;55.772;38.224;2023-07-16T06:47:22;6.70;;;4.82;;
58240;SDS011;45058;55.772;38.224;2023-07-16T06:49:48;7.55;;;5.55;;
58240;SDS011;45058;55.772;38.224;2023-07-16T06:52:20;7.65;;;5.22;;
58240;SDS011;45058;55.772;38.224;2023-07-16T06:54:47;8.27;;;5.75;;
58240;SDS011;45058;55.772;38.224;2023-07-16T06:57:14;11.70;;;5.55;;
58240;SDS011;45058;55.772;38.224;2023-07-16T06:59:40;13.52;;;5.88;;
58240;SDS011;45058;55.772;38.224;2023-07-16T07:02:06;8.88;;;5.55;;
58240;SDS011;45058;55.772;38.224;2023-07-16T07:04:32;9.63;;;6.05;;
58240;SDS011;45058;55.772;38.224;2023-07-16T07:06:59;8.95;;;6.45;;
58240;SDS011;45058;55.772;38.224;2023-07-16T07:09:25;6.63;;;5.90;;
58240;SDS011;45058;55.772;38.224;2023-07-16T07:11:51;11.55;;;5.95;;
58240;SDS011;45058;55.772;38.224;2023-07-16T07:14:17;9.73;;;6.32;;
58240;SDS011;45058;55.772;38.224;2023-07-16T07:16:43;8.07;;;5.88;;
58240;SDS011;45058;55.772;38.224;2023-07-16T07:19:09;11.40;;;6.20;;
58240;SDS011;45058;55.772;38.224;2023-07-16T07:21:36;12.07;;;6.35;;
58240;SDS011;45058;55.772;38.224;2023-07-16T07:24:02;8.98;;;6.47;;
58240;SDS011;45058;55.772;38.224;2023-07-16T07:26:28;6.97;;;5.47;;
58240;SDS011;45058;55.772;38.224;2023-07-16T07:28:54;10.68;;;5.72;;
58240;SDS011;45058;55.772;38.224;2023-07-16T07:31:20;9.77;;;5.43;;
58240;SDS011;45058;55.772;38.224;2023-07-16T07:33:46;5.63;;;4.60;;
58240;SDS011;45058;55.772;38.224;2023-07-16T07:36:12;9.93;;;5.63;;
58240;SDS011;45058;55.772;38.224;2023-07-16T07:38:38;8.10;;;5.50;;
58240;SDS011;45058;55.772;38.224;2023-07-16T07:41:05;9.13;;;4.90;;
58240;SDS011;45058;55.772;38.224;2023-07-16T07:43:32;7.97;;;5.30;;
58240;SDS011;45058;55.772;38.224;2023-07-16T07:45:58;5.78;;;4.40;;
58240;SDS011;45058;55.772;38.224;2023-07-16T07:48:24;6.65;;;4.30;;
58240;SDS011;45058;55.772;38.224;2023-07-16T07:50:50;6.88;;;4.30;;
58240;SDS011;45058;55.772;38.224;2023-07-16T07:53:16;5.78;;;4.78;;
58240;SDS011;45058;55.772;38.224;2023-07-16T07:55:45;7.10;;;4.45;;
58240;SDS011;45058;55.772;38.224;2023-07-16T07:58:12;7.07;;;4.82;;
58240;SDS011;45058;55.772;38.224;2023-07-16T08:00:38;7.63;;;4.53;;
58240;SDS011;45058;55.772;38.224;2023-07-16T08:03:04;8.30;;;5.07;;
58240;SDS011;45058;55.772;38.224;2023-07-16T08:05:31;8.80;;;4.78;;
58240;SDS011;45058;55.772;38.224;2023-07-16T08:07:57;5.13;;;4.63;;
58240;SDS011;45058;55.772;38.224;2023-07-16T08:10:23;7.03;;;4.50;;
58240;SDS011;45058;55.772;38.224;2023-07-16T08:12:49;6.82;;;4.55;;
58240;SDS011;45058;55.772;38.224;2023-07-16T08:15:17;11.50;;;4.97;;
58240;SDS011;45058;55.772;38.224;2023-07-16T08:17:44;9.50;;;5.78;;
58240;SDS011;45058;55.772;38.224;2023-07-16T08:20:11;9.05;;;5.35;;
58240;SDS011;45058;55.772;38.224;2023-07-16T08:22:38;5.78;;;4.53;;
58240;SDS011;45058;55.772;38.224;2023-07-16T08:25:05;8.43;;;4.75;;
58240;SDS011;45058;55.772;38.224;2023-07-16T08:27:31;6.10;;;4.95;;
58240;SDS011;45058;55.772;38.224;2023-07-16T08:29:58;8.77;;;4.80;;
58240;SDS011;45058;55.772;38.224;2023-07-16T08:32:36;6.35;;;4.88;;
58240;SDS011;45058;55.772;38.224;2023-07-16T08:35:05;6.18;;;4.72;;
58240;SDS011;45058;55.772;38.224;2023-07-16T08:37:33;5.90;;;4.28;;
58240;SDS011;45058;55.772;38.224;2023-07-16T08:40:00;7.53;;;5.47;;
58240;SDS011;45058;55.772;38.224;2023-07-16T08:42:28;5.93;;;4.82;;
58240;SDS011;45058;55.772;38.224;2023-07-16T08:44:55;7.30;;;5.30;;
58240;SDS011;45058;55.772;38.224;2023-07-16T08:47:21;6.70;;;5.38;;
58240;SDS011;45058;55.772;38.224;2023-07-16T08:49:56;9.15;;;5.78;;
58240;SDS011;45058;55.772;38.224;2023-07-16T08:52:22;5.85;;;4.78;;
58240;SDS011;45058;55.772;38.224;2023-07-16T08:54:49;5.93;;;5.32;;
58240;SDS011;45058;55.772;38.224;2023-07-16T08:57:15;9.02;;;5.25;;
58240;SDS011;45058;55.772;38.224;2023-07-16T08:59:42;6.50;;;4.63;;
58240;SDS011;45058;55.772;38.224;2023-07-16T09:02:10;5.53;;;4.93;;
58240;SDS011;45058;55.772;38.224;2023-07-16T09:04:36;5.32;;;4.78;;
58240;SDS011;45058;55.772;38.224;2023-07-16T09:07:03;8.55;;;5.03;;
58240;SDS011;45058;55.772;38.224;2023-07-16T09:09:30;8.50;;;4.85;;
58240;SDS011;45058;55.772;38.224;2023-07-16T09:11:56;6.18;;;4.82;;
58240;SDS011;45058;55.772;38.224;2023-07-16T09:14:22;6.65;;;5.10;;
58240;SDS011;45058;55.772;38.224;2023-07-16T09:16:51;5.28;;;4.78;;
58240;SDS011;45058;55.772;38.224;2023-07-16T09:19:18;5.03;;;4.53;;
58240;SDS011;45058;55.772;38.224;2023-07-16T09:21:47;5.13;;;4.63;;
58240;SDS011;45058;55.772;38.224;2023-07-16T09:24:18;7.18;;;4.43;;
58240;SDS011;45058;55.772;38.224;2023-07-16T09:26:53;9.63;;;4.43;;
58240;SDS011;45058;55.772;38.224;2023-07-16T09:29:34;6.20;;;4.13;;
58240;SDS011;45058;55.772;38.224;2023-07-16T09:32:19;5.75;;;4.20;;
58240;SDS011;45058;55.772;38.224;2023-07-16T09:34:57;5.38;;;4.13;;
58240;SDS011;45058;55.772;38.224;2023-07-16T09:37:41;8.23;;;4.45;;
58240;SDS011;45058;55.772;38.224;2023-07-16T09:40:23;5.85;;;4.10;;
58240;SDS011;45058;55.772;38.224;2023-07-16T09:43:06;5.28;;;4.78;;
58240;SDS011;45058;55.772;38.224;2023-07-16T09:45:47;7.78;;;4.88;;
58240;SDS011;45058;55.772;38.224;2023-07-16T09:48:27;5.05;;;4.50;;
58240;SDS011;45058;55.772;38.224;2023-07-16T09:50:53;5.07;;;4.22;;
58240;SDS011;45058;55.772;38.224;2023-07-16T09:53:20;7.45;;;4.57;;
58240;SDS011;45058;55.772;38.224;2023-07-16T09:55:49;6.85;;;4.25;;
58240;SDS011;45058;55.772;38.224;2023-07-16T09:58:16;6.78;;;4.72;;
58240;SDS011;45058;55.772;38.224;2023-07-16T10:00:45;6.18;;;4.28;;
58240;SDS011;45058;55.772;38.224;2023-07-16T10:03:12;5.28;;;4.30;;
58240;SDS011;45058;55.772;38.224;2023-07-16T10:05:39;7.22;;;5.25;;
58240;SDS011;45058;55.772;38.224;2023-07-16T10:08:14;7.68;;;4.70;;
58240;SDS011;45058;55.772;38.224;2023-07-16T10:10:43;8.63;;;4.57;;
58240;SDS011;45058;55.772;38.224;2023-07-16T10:13:21;10.02;;;4.45;;
58240;SDS011;45058;55.772;38.224;2023-07-16T10:15:55;8.98;;;4.35;;
58240;SDS011;45058;55.772;38.224;2023-07-16T10:18:29;6.45;;;3.83;;
58240;SDS011;45058;55.772;38.224;2023-07-16T10:21:03;5.95;;;4.03;;
58240;SDS011;45058;55.772;38.224;2023-07-16T10:23:39;8.60;;;3.75;;
58240;SDS011;45058;55.772;38.224;2023-07-16T10:26:07;6.05;;;4.38;;
58240;SDS011;45058;55.772;38.224;2023-07-16T10:28:37;8.10;;;5.38;;
58240;SDS011;45058;55.772;38.224;2023-07-16T10:31:03;5.50;;;4.90;;
58240;SDS011;45058;55.772;38.224;2023-07-16T10:33:31;7.32;;;4.63;;
58240;SDS011;45058;55.772;38.224;2023-07-16T10:35:57;6.43;;;4.97;;
58240;SDS011;45058;55.772;38.224;2023-07-16T10:38:24;9.38;;;4.38;;
58240;SDS011;45058;55.772;38.224;2023-07-16T10:40:50;6.25;;;4.35;;
58240;SDS011;45058;55.772;38.224;2023-07-16T10:43:16;5.57;;;4.65;;
58240;SDS011;45058;55.772;38.224;2023-07-16T10:45:43;9.27;;;4.50;;
58240;SDS011;45058;55.772;38.224;2023-07-16T10:48:12;8.65;;;4.63;;
58240;SDS011;45058;55.772;38.224;2023-07-16T10:50:38;7.75;;;4.53;;
58240;SDS011;45058;55.772;38.224;2023-07-16T10:53:04;9.30;;;4.10;;
58240;SDS011;45058;55.772;38.224;2023-07-16T10:55:31;5.05;;;4.00;;
58240;SDS011;45058;55.772;38.224;2023-07-16T10:58:04;4.80;;;3.90;;
58240;SDS011;45058;55.772;38.224;2023-07-16T11:00:36;5.80;;;4.50;;
58240;SDS011;45058;55.772;38.224;2023-07-16T11:03:03;10.55;;;4.72;;
58240;SDS011;45058;55.772;38.224;2023-07-16T11:05:30;7.30;;;4.75;;
58240;SDS011;45058;55.772;38.224;2023-07-16T11:07:56;8.18;;;5.38;;
58240;SDS011;45058;55.772;38.224;2023-07-16T11:10:23;9.70;;;4.80;;
58240;SDS011;45058;55.772;38.224;2023-07-16T11:12:52;7.75;;;5.00;;
58240;SDS011;45058;55.772;38.224;2023-07-16T11:15:29;10.30;;;4.60;;
58240;SDS011;45058;55.772;38.224;2023-07-16T11:17:58;9.02;;;4.55;;
58240;SDS011;45058;55.772;38.224;2023-07-16T11:20:24;8.15;;;4.55;;
58240;SDS011;45058;55.772;38.224;2023-07-16T11:22:50;9.32;;;4.72;;
58240;SDS011;45058;55.772;38.224;2023-07-16T11:25:19;6.65;;;4.28;;
58240;SDS011;45058;55.772;38.224;2023-07-16T11:27:46;4.75;;;3.88;;
58240;SDS011;45058;55.772;38.224;2023-07-16T11:30:12;5.90;;;4.15;;
58240;SDS011;45058;55.772;38.224;2023-07-16T11:32:42;5.03;;;4.20;;
58240;SDS011;45058;55.772;38.224;2023-07-16T11:35:15;5.38;;;4.78;;
58240;SDS011;45058;55.772;38.224;2023-07-16T11:37:43;6.53;;;5.00;;
58240;SDS011;45058;55.772;38.224;2023-07-16T11:40:10;9.40;;;4.93;;
58240;SDS011;45058;55.772;38.224;2023-07-16T11:42:38;7.22;;;4.18;;
58240;SDS011;45058;55.772;38.224;2023-07-16T11:45:05;11.15;;;4.72;;
58240;SDS011;45058;55.772;38.224;2023-07-16T11:47:47;7.18;;;4.20;;
58240;SDS011;45058;55.772;38.224;2023-07-16T11:50:13;9.20;;;4.80;;
58240;SDS011;45058;55.772;38.224;2023-07-16T11:52:40;4.75;;;4.35;;
58240;SDS011;45058;55.772;38.224;2023-07-16T11:55:06;8.43;;;4.78;;
58240;SDS011;45058;55.772;38.224;2023-07-16T11:57:34;5.40;;;4.03;;
58240;SDS011;45058;55.772;38.224;2023-07-16T12:00:07;7.40;;;4.20;;
58240;SDS011;45058;55.772;38.224;2023-07-16T12:02:34;4.57;;;3.80;;
58240;SDS011;45058;55.772;38.224;2023-07-16T12:05:01;7.18;;;3.83;;
58240;SDS011;45058;55.772;38.224;2023-07-16T12:07:37;6.88;;;3.90;;
58240;SDS011;45058;55.772;38.224;2023-07-16T12:10:04;8.38;;;3.67;;
58240;SDS011;45058;55.772;38.224;2023-07-16T12:12:34;8.02;;;4.05;;
58240;SDS011;45058;55.772;38.224;2023-07-16T12:15:05;7.45;;;3.20;;
58240;SDS011;45058;55.772;38.224;2023-07-16T12:17:32;4.95;;;3.38;;
58240;SDS011;45058;55.772;38.224;2023-07-16T12:19:58;5.90;;;3.80;;
58240;SDS011;45058;55.772;38.224;2023-07-16T12:22:24;9.48;;;4.10;;
58240;SDS011;45058;55.772;38.224;2023-07-16T12:24:50;5.38;;;3.58;;
58240;SDS011;45058;55.772;38.224;2023-07-16T12:27:17;4.60;;;3.88;;
58240;SDS011;45058;55.772;38.224;2023-07-16T12:29:44;4.72;;;2.75;;
58240;SDS011;45058;55.772;38.224;2023-07-16T12:32:10;3.80;;;2.95;;
58240;SDS011;45058;55.772;38.224;2023-07-16T12:34:36;4.32;;;3.15;;
58240;SDS011;45058;55.772;38.224;2023-07-16T12:37:02;6.22;;;2.88;;
58240;SDS011;45058;55.772;38.224;2023-07-16T12:39:28;3.25;;;2.30;;
58240;SDS011;45058;55.772;38.224;2023-07-16T12:41:55;5.78;;;3.55;;
58240;SDS011;45058;55.772;38.224;2023-07-16T12:44:21;27.40;;;7.53;;
58240;SDS011;45058;55.772;38.224;2023-07-16T12:46:47;4.38;;;3.13;;
58240;SDS011;45058;55.772;38.224;2023-07-16T12:49:13;4.55;;;2.95;;
58240;SDS011;45058;55.772;38.224;2023-07-16T12:51:40;5.60;;;3.25;;
58240;SDS011;45058;55.772;38.224;2023-07-16T12:54:06;6.53;;;3.30;;
58240;SDS011;45058;55.772;38.224;2023-07-16T12:56:33;4.40;;;2.95;;
58240;SDS011;45058;55.772;38.224;2023-07-16T12:58:59;4.90;;;2.88;;
58240;SDS011;45058;55.772;38.224;2023-07-16T13:01:25;4.28;;;3.25;;
58240;SDS011;45058;55.772;38.224;2023-07-16T13:03:51;2.80;;;2.42;;
58240;SDS011;45058;55.772;38.224;2023-07-16T13:06:17;7.38;;;3.28;;
58240;SDS011;45058;55.772;38.224;2023-07-16T13:08:43;13.93;;;3.97;;
58240;SDS011;45058;55.772;38.224;2023-07-16T13:11:10;7.35;;;3.80;;
58240;SDS011;45058;55.772;38.224;2023-07-16T13:13:37;6.78;;;3.22;;
58240;SDS011;45058;55.772;38.224;2023-07-16T13:16:03;7.80;;;3.20;;
58240;SDS011;45058;55.772;38.224;2023-07-16T13:18:30;6.95;;;2.53;;
58240;SDS011;45058;55.772;38.224;2023-07-16T13:20:56;6.50;;;2.70;;
58240;SDS011;45058;55.772;38.224;2023-07-16T13:23:22;5.22;;;2.67;;
58240;SDS011;45058;55.772;38.224;2023-07-16T13:25:48;5.63;;;2.90;;
58240;SDS011;45058;55.772;38.224;2023-07-16T13:28:17;11.32;;;3.45;;
58240;SDS011;45058;55.772;38.224;2023-07-16T13:30:43;7.00;;;3.58;;
58240;SDS011;45058;55.772;38.224;2023-07-16T13:33:09;8.50;;;3.90;;
58240;SDS011;45058;55.772;38.224;2023-07-16T13:35:35;5.40;;;3.70;;
58240;SDS011;45058;55.772;38.224;2023-07-16T13:38:04;6.57;;;3.42;;
58240;SDS011;45058;55.772;38.224;2023-07-16T13:40:30;13.73;;;3.63;;
58240;SDS011;45058;55.772;38.224;2023-07-16T13:42:58;12.10;;;3.22;;
58240;SDS011;45058;55.772;38.224;2023-07-16T13:45:25;10.57;;;3.75;;
58240;SDS011;45058;55.772;38.224;2023-07-16T13:47:51;9.75;;;4.28;;
58240;SDS011;45058;55.772;38.224;2023-07-16T13:50:18;6.85;;;3.72;;
58240;SDS011;45058;55.772;38.224;2023-07-16T13:52:44;5.75;;;3.97;;
58240;SDS011;45058;55.772;38.224;2023-07-16T13:55:10;6.55;;;3.30;;
58240;SDS011;45058;55.772;38.224;2023-07-16T13:57:37;4.43;;;3.35;;
58240;SDS011;45058;55.772;38.224;2023-07-16T14:00:07;7.32;;;3.33;;
58240;SDS011;45058;55.772;38.224;2023-07-16T14:02:37;4.78;;;3.10;;
58240;SDS011;45058;55.772;38.224;2023-07-16T14:05:03;10.90;;;3.72;;
58240;SDS011;45058;55.772;38.224;2023-07-16T14:07:30;5.95;;;3.65;;
58240;SDS011;45058;55.772;38.224;2023-07-16T14:09:56;10.95;;;3.60;;
58240;SDS011;45058;55.772;38.224;2023-07-16T14:12:23;6.90;;;3.75;;
58240;SDS011;45058;55.772;38.224;2023-07-16T14:14:49;8.70;;;3.90;;
58240;SDS011;45058;55.772;38.224;2023-07-16T14:17:15;7.85;;;3.20;;
58240;SDS011;45058;55.772;38.224;2023-07-16T14:19:41;9.02;;;3.10;;
58240;SDS011;45058;55.772;38.224;2023-07-16T14:22:07;5.18;;;2.60;;
58240;SDS011;45058;55.772;38.224;2023-07-16T14:24:37;5.68;;;3.08;;
58240;SDS011;45058;55.772;38.224;2023-07-16T14:27:03;6.05;;;3.38;;
58240;SDS011;45058;55.772;38.224;2023-07-16T14:29:32;4.18;;;3.38;;
58240;SDS011;45058;55.772;38.224;2023-07-16T14:31:58;7.80;;;2.80;;
58240;SDS011;45058;55.772;38.224;2023-07-16T14:34:25;6.22;;;5.63;;
58240;SDS011;45058;55.772;38.224;2023-07-16T14:36:52;4.88;;;3.75;;
58240;SDS011;45058;55.772;38.224;2023-07-16T14:39:18;13.75;;;5.40;;